createdAt,value
2018-06-08T00:00:49.471Z,33.60
2018-06-08T00:03:16.445Z,38.27
2018-06-08T00:05:43.321Z,36.13
2018-06-08T00:08:10.450Z,35.10
2018-06-08T00:10:37.461Z,36.47
2018-06-08T00:13:05.094Z,35.17
2018-06-08T00:15:32.002Z,34.60
2018-06-08T00:17:58.919Z,32.83
2018-06-08T00:20:26.548Z,39.53
2018-06-08T00:22:53.493Z,36.23
2018-06-08T00:25:20.467Z,36.50
2018-06-08T00:27:48.093Z,32.77
2018-06-08T00:30:15.799Z,34.87
2018-06-08T00:32:42.744Z,40.90
2018-06-08T00:35:10.420Z,36.93
2018-06-08T00:37:37.298Z,36.43
2018-06-08T00:40:04.253Z,37.00
2018-06-08T00:42:31.141Z,35.37
2018-06-08T00:44:58.837Z,35.17
2018-06-08T00:47:25.860Z,38.00
2018-06-08T00:49:52.770Z,39.73
2018-06-08T00:52:19.717Z,38.43
2018-06-08T00:54:47.065Z,36.57
2018-06-08T00:57:14.016Z,34.40
2018-06-08T00:59:40.968Z,29.53
2018-06-08T01:02:07.977Z,32.97
2018-06-08T01:04:34.924Z,30.40
2018-06-08T01:07:01.813Z,32.77
2018-06-08T01:09:28.759Z,29.20
2018-06-08T01:11:55.704Z,30.03
2018-06-08T01:14:22.744Z,26.93
2018-06-08T01:16:49.633Z,28.37
2018-06-08T01:19:16.587Z,29.53
2018-06-08T01:21:43.468Z,30.73
2018-06-08T01:24:10.445Z,32.87
2018-06-08T01:26:38.209Z,32.60
2018-06-08T01:29:05.840Z,34.73
2018-06-08T01:31:32.719Z,31.00
2018-06-08T01:34:00.402Z,34.97
2018-06-08T01:36:27.286Z,30.30
2018-06-08T01:38:54.222Z,30.50
2018-06-08T01:41:21.094Z,33.57
2018-06-08T01:43:48.021Z,33.17
2018-06-08T01:46:15.018Z,36.23
2018-06-08T01:48:42.716Z,35.20
2018-06-08T01:51:09.636Z,33.57
2018-06-08T01:53:36.613Z,38.00
2018-06-08T01:56:03.589Z,38.10
2018-06-08T01:58:30.568Z,36.10
2018-06-08T02:00:58.240Z,36.83
2018-06-08T02:03:25.173Z,37.37
2018-06-08T02:05:52.324Z,38.40
2018-06-08T02:08:19.291Z,37.50
2018-06-08T02:10:46.248Z,39.07
2018-06-08T02:13:13.128Z,41.97
2018-06-08T02:15:40.005Z,42.90
2018-06-08T02:18:07.709Z,44.37
2018-06-08T02:20:34.585Z,42.07
2018-06-08T02:23:01.575Z,41.40
2018-06-08T02:25:28.493Z,40.50
2018-06-08T02:27:56.191Z,38.90
2018-06-08T02:30:23.082Z,37.97
2018-06-08T02:32:50.048Z,45.17
2018-06-08T02:35:17.719Z,42.50
2018-06-08T02:37:45.370Z,42.43
2018-06-08T02:40:12.296Z,45.10
2018-06-08T02:42:39.184Z,44.67
2018-06-08T02:45:06.872Z,43.63
2018-06-08T02:47:33.798Z,48.33
2018-06-08T02:50:00.743Z,39.77
2018-06-08T02:52:27.694Z,40.70
2018-06-08T02:54:54.574Z,42.23
2018-06-08T02:57:21.530Z,44.83
2018-06-08T02:59:48.465Z,41.13
2018-06-08T03:02:15.410Z,40.63
2018-06-08T03:04:42.333Z,38.20
2018-06-08T03:07:09.236Z,40.37
2018-06-08T03:09:36.164Z,38.27
2018-06-08T03:12:03.087Z,38.13
2018-06-08T03:14:30.097Z,40.53
2018-06-08T03:16:56.964Z,36.77
2018-06-08T03:19:23.908Z,40.90
2018-06-08T03:21:50.820Z,38.67
2018-06-08T03:24:18.493Z,39.87
2018-06-08T03:26:46.121Z,43.50
2018-06-08T03:29:13.166Z,47.03
2018-06-08T03:31:40.032Z,40.73
2018-06-08T03:34:06.921Z,40.27
2018-06-08T03:36:33.885Z,46.40
2018-06-08T03:39:00.836Z,41.23
2018-06-08T03:41:27.765Z,39.07
2018-06-08T03:43:54.694Z,40.57
2018-06-08T03:46:21.589Z,37.20
2018-06-08T03:48:48.474Z,44.50
2018-06-08T03:51:16.134Z,40.67
2018-06-08T03:53:43.740Z,43.00
2018-06-08T03:56:10.646Z,39.50
2018-06-08T03:58:38.301Z,38.87
2018-06-08T04:01:05.926Z,42.50
2018-06-08T04:03:32.859Z,41.57
2018-06-08T04:05:59.748Z,76.47
2018-06-08T04:08:27.563Z,106.97
2018-06-08T04:10:54.509Z,90.07
2018-06-08T04:13:21.441Z,45.83
2018-06-08T04:15:48.368Z,44.70
2018-06-08T04:18:15.272Z,45.80
2018-06-08T04:20:42.245Z,41.90
2018-06-08T04:23:09.928Z,48.20
2018-06-08T04:25:36.837Z,50.93
2018-06-08T04:28:03.804Z,46.10
2018-06-08T04:30:31.411Z,37.83
2018-06-08T04:32:58.369Z,37.73
2018-06-08T04:35:25.281Z,38.57
2018-06-08T04:37:58.280Z,37.60
2018-06-08T04:40:28.710Z,36.67
2018-06-08T04:42:58.939Z,40.63
2018-06-08T04:45:25.817Z,34.60
2018-06-08T04:47:52.770Z,32.50
2018-06-08T04:50:19.641Z,35.50
2018-06-08T04:52:46.751Z,34.43
2018-06-08T04:55:14.489Z,35.57
2018-06-08T04:57:41.361Z,32.17
2018-06-08T05:00:09.098Z,30.67
2018-06-08T05:02:40.107Z,31.73
2018-06-08T05:05:07.280Z,31.43
2018-06-08T05:07:43.053Z,32.67
2018-06-08T05:10:10.621Z,30.63
2018-06-08T05:12:47.618Z,33.70
2018-06-08T05:15:21.558Z,29.37
2018-06-08T05:17:50.436Z,32.57
2018-06-08T05:20:17.642Z,29.90
2018-06-08T05:22:47.590Z,31.70
2018-06-08T05:25:20.081Z,31.37
2018-06-08T05:27:49.605Z,29.77
2018-06-08T05:30:28.543Z,30.47
2018-06-08T05:32:56.666Z,28.57
2018-06-08T05:35:23.622Z,31.37
2018-06-08T05:37:50.581Z,31.43
2018-06-08T05:40:17.735Z,30.10
2018-06-08T05:42:49.014Z,29.53
2018-06-08T05:45:15.917Z,28.47
2018-06-08T05:47:48.257Z,28.70
2018-06-08T05:50:15.629Z,29.17
2018-06-08T05:52:43.257Z,29.60
2018-06-08T05:55:10.179Z,32.53
2018-06-08T05:57:37.172Z,29.87
2018-06-08T06:00:04.141Z,32.37
2018-06-08T06:02:31.165Z,33.03
2018-06-08T06:04:58.103Z,32.90
2018-06-08T06:07:25.154Z,31.33
2018-06-08T06:09:52.135Z,33.00
2018-06-08T06:12:19.041Z,30.63
2018-06-08T06:14:46.201Z,32.70
2018-06-08T06:17:14.352Z,31.90
2018-06-08T06:19:41.261Z,35.53
2018-06-08T06:22:08.159Z,41.53
2018-06-08T06:24:35.100Z,32.27
2018-06-08T06:27:02.101Z,34.30
2018-06-08T06:29:29.050Z,35.20
2018-06-08T06:31:55.955Z,33.83
2018-06-08T06:34:22.882Z,37.07
2018-06-08T06:36:49.893Z,35.87
2018-06-08T06:39:17.537Z,37.20
2018-06-08T06:41:44.417Z,33.73
2018-06-08T06:44:12.185Z,34.93
2018-06-08T06:46:39.067Z,35.90
2018-06-08T06:49:05.990Z,40.80
2018-06-08T06:51:32.942Z,38.80
2018-06-08T06:53:59.897Z,33.47
2018-06-08T06:56:26.917Z,33.70
2018-06-08T06:58:53.816Z,35.47
2018-06-08T07:01:20.714Z,33.43
2018-06-08T07:03:47.658Z,32.00
2018-06-08T07:06:14.634Z,32.97
2018-06-08T07:08:41.590Z,35.17
2018-06-08T07:11:08.493Z,32.57
2018-06-08T07:13:35.610Z,32.30
2018-06-08T07:16:02.606Z,31.07
2018-06-08T07:18:29.605Z,29.90
2018-06-08T07:20:56.615Z,31.00
2018-06-08T07:23:23.568Z,28.00
2018-06-08T07:25:50.516Z,25.93
2018-06-08T07:28:17.567Z,27.40
2018-06-08T07:30:44.505Z,26.07
2018-06-08T07:33:11.552Z,25.90
2018-06-08T07:35:38.454Z,23.53
2018-06-08T07:38:06.145Z,26.27
2018-06-08T07:40:33.217Z,25.37
2018-06-08T07:43:00.197Z,26.43
2018-06-08T07:45:27.084Z,24.77
2018-06-08T07:47:54.049Z,26.17
2018-06-08T07:50:21.013Z,27.87
2018-06-08T07:52:48.004Z,28.17
2018-06-08T07:55:14.993Z,30.53
2018-06-08T07:57:41.982Z,29.00
2018-06-08T08:00:09.014Z,30.67
2018-06-08T08:02:35.938Z,29.17
2018-06-08T08:05:03.087Z,28.30
2018-06-08T08:07:30.045Z,27.17
2018-06-08T08:09:57.047Z,27.73
2018-06-08T08:12:24.071Z,28.10
2018-06-08T08:14:51.820Z,24.40
2018-06-08T08:17:28.845Z,27.60
2018-06-08T08:19:55.833Z,27.43
2018-06-08T08:22:22.765Z,24.33
2018-06-08T08:24:49.771Z,23.20
2018-06-08T08:27:16.952Z,24.13
2018-06-08T08:29:43.867Z,26.43
2018-06-08T08:32:10.830Z,22.53
2018-06-08T08:34:37.732Z,19.73
2018-06-08T08:37:04.741Z,20.43
2018-06-08T08:39:31.735Z,19.23
2018-06-08T08:41:58.682Z,24.37
2018-06-08T08:44:25.755Z,25.17
2018-06-08T08:46:53.431Z,26.30
2018-06-08T08:49:20.393Z,24.60
2018-06-08T08:51:47.436Z,25.40
2018-06-08T08:54:14.390Z,28.13
2018-06-08T08:56:41.344Z,23.07
2018-06-08T08:59:08.240Z,21.43
2018-06-08T09:01:35.978Z,22.70
2018-06-08T09:04:02.980Z,24.50
2018-06-08T09:06:29.937Z,26.03
2018-06-08T09:08:56.945Z,22.13
2018-06-08T09:11:24.611Z,23.30
2018-06-08T09:13:52.340Z,21.87
2018-06-08T09:16:19.227Z,23.67
2018-06-08T09:18:46.982Z,20.83
2018-06-08T09:21:14.772Z,27.33
2018-06-08T09:23:41.656Z,22.60
2018-06-08T09:26:08.576Z,26.17
2018-06-08T09:28:46.378Z,22.90
2018-06-08T09:31:13.309Z,25.33
2018-06-08T09:33:40.265Z,25.33
2018-06-08T09:36:07.306Z,26.67
2018-06-08T09:38:34.339Z,25.57
2018-06-08T09:41:02.042Z,25.77
2018-06-08T09:43:29.043Z,23.93
2018-06-08T09:45:56.099Z,19.33
2018-06-08T09:48:24.429Z,18.70
2018-06-08T09:50:51.352Z,22.30
2018-06-08T09:53:18.477Z,19.43
2018-06-08T09:55:45.405Z,22.03
2018-06-08T09:58:12.355Z,23.83
2018-06-08T10:00:39.458Z,18.67
2018-06-08T10:03:06.519Z,19.50
2018-06-08T10:05:33.498Z,21.80
2018-06-08T10:08:00.640Z,20.97
2018-06-08T10:10:27.670Z,20.37
2018-06-08T10:12:54.617Z,21.60
2018-06-08T10:15:21.647Z,18.60
2018-06-08T10:17:48.654Z,19.50
2018-06-08T10:20:15.753Z,17.77
2018-06-08T10:22:42.849Z,18.53
2018-06-08T10:25:09.769Z,17.60
2018-06-08T10:27:36.772Z,18.80
2018-06-08T10:30:03.749Z,18.63
2018-06-08T10:32:30.757Z,19.03
2018-06-08T10:34:57.725Z,17.30
2018-06-08T10:37:24.708Z,18.00
2018-06-08T10:39:51.659Z,25.00
2018-06-08T10:42:18.768Z,25.50
2018-06-08T10:44:45.710Z,22.67
2018-06-08T10:47:12.696Z,21.50
2018-06-08T10:49:40.412Z,18.23
2018-06-08T10:52:07.361Z,23.47
2018-06-08T10:54:34.365Z,20.13
2018-06-08T10:57:01.288Z,16.93
2018-06-08T10:59:28.293Z,16.63
2018-06-08T11:01:55.291Z,15.53
2018-06-08T11:04:22.194Z,14.80
2018-06-08T11:06:49.188Z,16.10
2018-06-08T11:09:16.118Z,16.70
2018-06-08T11:11:43.038Z,18.17
2018-06-08T11:14:10.006Z,15.97
2018-06-08T11:16:37.089Z,16.53
2018-06-08T11:19:04.008Z,26.33
2018-06-08T11:21:30.929Z,17.40
2018-06-08T11:23:57.982Z,17.13
2018-06-08T11:26:25.027Z,15.07
2018-06-08T11:28:52.028Z,15.67
2018-06-08T11:31:19.005Z,13.60
2018-06-08T11:33:46.022Z,15.07
2018-06-08T11:36:13.014Z,14.57
2018-06-08T11:38:39.996Z,15.30
2018-06-08T11:41:06.974Z,14.27
2018-06-08T11:43:33.859Z,13.47
2018-06-08T11:46:00.874Z,14.60
2018-06-08T11:48:27.846Z,13.70
2018-06-08T11:50:54.868Z,13.93
2018-06-08T11:53:21.924Z,14.53
2018-06-08T11:55:49.637Z,13.20
2018-06-08T11:58:16.702Z,13.40
2018-06-08T12:00:43.630Z,12.60
2018-06-08T12:03:10.797Z,14.30
2018-06-08T12:05:37.749Z,13.33
2018-06-08T12:08:04.806Z,11.27
2018-06-08T12:10:31.825Z,10.73
2018-06-08T12:12:58.832Z,10.27
2018-06-08T12:15:25.840Z,11.73
2018-06-08T12:17:52.911Z,10.70
2018-06-08T12:20:19.902Z,12.70
2018-06-08T12:22:46.841Z,10.80
2018-06-08T12:25:13.859Z,12.83
2018-06-08T12:27:40.853Z,11.50
2018-06-08T12:30:07.840Z,12.70
2018-06-08T12:32:34.859Z,12.60
2018-06-08T12:35:01.773Z,12.50
2018-06-08T12:37:28.784Z,12.57
2018-06-08T12:39:55.780Z,12.30
2018-06-08T12:42:22.844Z,12.43
2018-06-08T12:44:49.764Z,11.60
2018-06-08T12:47:16.782Z,11.17
2018-06-08T12:49:44.435Z,11.30
2018-06-08T12:52:13.822Z,11.23
2018-06-08T12:54:42.975Z,11.00
2018-06-08T12:57:10.768Z,12.17
2018-06-08T12:59:41.678Z,17.03
2018-06-08T13:02:09.625Z,13.07
2018-06-08T13:04:36.544Z,12.27
2018-06-08T13:07:03.813Z,13.50
2018-06-08T13:09:46.002Z,18.63
2018-06-08T13:12:15.316Z,17.23
2018-06-08T13:14:43.673Z,15.97
2018-06-08T13:17:10.888Z,16.43
2018-06-08T13:19:44.285Z,14.47
2018-06-08T13:22:19.536Z,17.10
2018-06-08T13:24:47.303Z,16.57
2018-06-08T13:27:14.280Z,14.70
2018-06-08T13:29:41.169Z,15.30
2018-06-08T13:32:18.809Z,14.30
2018-06-08T13:34:45.717Z,14.67
2018-06-08T13:37:14.465Z,15.93
2018-06-08T13:39:43.733Z,15.20
2018-06-08T13:42:10.965Z,14.10
2018-06-08T13:44:37.854Z,14.20
2018-06-08T13:47:05.377Z,14.90
2018-06-08T13:49:34.737Z,15.10
2018-06-08T13:52:01.738Z,16.93
2018-06-08T13:54:30.261Z,15.10
2018-06-08T13:56:57.451Z,14.33
2018-06-08T13:59:24.394Z,14.60
2018-06-08T14:01:51.378Z,12.50
2018-06-08T14:04:19.284Z,15.30
2018-06-08T14:06:48.006Z,14.43
2018-06-08T14:09:18.966Z,13.97
2018-06-08T14:11:46.150Z,15.57
2018-06-08T14:14:14.920Z,14.53
2018-06-08T14:16:42.794Z,15.50
2018-06-08T14:19:09.776Z,17.00
2018-06-08T14:21:37.517Z,17.33
2018-06-08T14:24:05.718Z,16.97
2018-06-08T14:26:33.402Z,17.37
2018-06-08T14:29:01.078Z,19.13
2018-06-08T14:31:28.045Z,17.47
2018-06-08T14:33:55.118Z,18.03
2018-06-08T14:36:22.796Z,13.10
2018-06-08T14:38:52.045Z,12.70
2018-06-08T14:43:59.006Z,9.57
2018-06-08T14:46:31.456Z,10.03
2018-06-08T14:49:05.585Z,9.00
2018-06-08T14:51:33.311Z,10.13
2018-06-08T14:54:00.279Z,9.73
2018-06-08T14:56:30.924Z,8.53
2018-06-08T14:58:58.119Z,10.37
2018-06-08T15:01:29.424Z,9.53
2018-06-08T15:03:58.661Z,11.07
2018-06-08T15:06:25.917Z,11.20
2018-06-08T15:08:55.514Z,10.77
2018-06-08T15:11:25.847Z,10.30
2018-06-08T15:13:53.893Z,10.43
2018-06-08T15:16:23.066Z,9.43
2018-06-08T15:18:50.027Z,8.67
2018-06-08T15:21:17.918Z,8.67
2018-06-08T15:23:45.692Z,10.70
2018-06-08T15:26:13.551Z,9.13
2018-06-08T15:28:44.514Z,8.60
2018-06-08T15:31:11.789Z,10.43
2018-06-08T15:33:40.443Z,11.13
2018-06-08T15:36:07.696Z,10.53
2018-06-08T15:38:37.159Z,9.50
2018-06-08T15:41:04.156Z,10.47
2018-06-08T15:43:33.418Z,9.57
2018-06-08T15:46:01.195Z,9.60
2018-06-08T15:48:30.165Z,9.30
2018-06-08T15:50:57.843Z,9.50
2018-06-08T15:53:25.063Z,10.50
2018-06-08T15:55:52.152Z,9.37
2018-06-08T15:58:20.348Z,10.20
2018-06-08T16:00:48.987Z,9.43
2018-06-08T16:03:16.775Z,8.33
2018-06-08T16:05:43.821Z,8.30
2018-06-08T16:08:10.834Z,9.10
2018-06-08T16:10:37.790Z,8.23
2018-06-08T16:13:04.666Z,8.83
2018-06-08T16:15:31.713Z,8.73
2018-06-08T16:17:58.792Z,7.93
2018-06-08T16:20:26.669Z,7.80
2018-06-08T16:22:53.732Z,7.60
2018-06-08T16:25:21.404Z,8.43
2018-06-08T16:27:48.804Z,8.60
2018-06-08T16:30:16.261Z,8.90
2018-06-08T16:32:44.216Z,9.20
2018-06-08T16:35:14.788Z,11.17
2018-06-08T16:37:43.507Z,9.63
2018-06-08T16:40:14.258Z,10.53
2018-06-08T16:42:43.560Z,10.47
2018-06-08T16:45:10.812Z,11.43
2018-06-08T16:47:37.764Z,11.37
2018-06-08T16:50:05.556Z,10.60
2018-06-08T16:52:35.403Z,11.23
2018-06-08T16:55:07.094Z,11.47
2018-06-08T16:57:37.719Z,11.17
2018-06-08T17:00:05.574Z,12.03
2018-06-08T17:02:32.677Z,12.37
2018-06-08T17:05:00.314Z,12.80
2018-06-08T17:07:27.262Z,11.97
2018-06-08T17:09:54.230Z,12.17
2018-06-08T17:12:21.187Z,13.53
2018-06-08T17:14:48.847Z,12.83
2018-06-08T17:17:15.815Z,11.73
2018-06-08T17:19:43.937Z,12.77
2018-06-08T17:22:11.696Z,11.67
2018-06-08T17:24:39.947Z,12.57
2018-06-08T17:27:07.403Z,12.47
2018-06-08T17:29:34.294Z,12.73
2018-06-08T17:32:06.288Z,13.33
2018-06-08T17:34:34.280Z,13.10
2018-06-08T17:37:02.058Z,14.73
2018-06-08T17:39:30.207Z,14.10
2018-06-08T17:41:58.226Z,15.97
2018-06-08T17:44:26.120Z,13.30
2018-06-08T17:46:54.725Z,12.50
2018-06-08T17:49:23.029Z,13.80
2018-06-08T17:51:50.945Z,13.97
2018-06-08T17:54:19.588Z,12.80
2018-06-08T17:56:47.637Z,13.17
2018-06-08T17:59:15.518Z,13.30
2018-06-08T18:01:43.237Z,12.93
2018-06-08T18:04:11.192Z,13.27
2018-06-08T18:06:39.126Z,12.43
2018-06-08T18:09:06.360Z,12.17
2018-06-08T18:11:34.065Z,11.70
2018-06-08T18:14:01.205Z,11.70
2018-06-08T18:16:30.414Z,11.93
2018-06-08T18:19:00.198Z,10.70
2018-06-08T18:21:32.598Z,12.30
2018-06-08T18:24:07.092Z,10.93
2018-06-08T18:26:40.449Z,10.37
2018-06-08T18:29:09.904Z,11.03
2018-06-08T18:31:39.280Z,11.40
2018-06-08T18:34:09.317Z,10.93
2018-06-08T18:36:38.702Z,10.57
2018-06-08T18:39:07.894Z,10.00
2018-06-08T18:41:36.126Z,10.43
2018-06-08T18:44:05.509Z,11.37
2018-06-08T18:46:34.463Z,11.30
2018-06-08T18:49:02.392Z,10.57
2018-06-08T18:51:33.351Z,11.60
2018-06-08T18:54:04.051Z,10.80
2018-06-08T18:56:36.744Z,11.07
2018-06-08T18:59:08.817Z,10.47
2018-06-08T19:01:35.912Z,10.87
2018-06-08T19:04:02.929Z,13.33
2018-06-08T19:06:29.933Z,12.87
2018-06-08T19:08:56.902Z,40.63
2018-06-08T19:11:23.849Z,16.97
2018-06-08T19:13:50.817Z,33.13
2018-06-08T19:16:18.511Z,13.70
2018-06-08T19:18:46.894Z,16.53
2018-06-08T19:21:13.853Z,19.17
2018-06-08T19:23:40.728Z,14.80
2018-06-08T19:26:07.701Z,12.70
2018-06-08T19:28:34.600Z,16.73
2018-06-08T19:31:01.554Z,14.57
2018-06-08T19:33:29.565Z,20.30
2018-06-08T19:35:57.073Z,14.03
2018-06-08T19:38:25.015Z,13.00
2018-06-08T19:40:52.059Z,16.33
2018-06-08T19:43:20.741Z,12.80
2018-06-08T19:45:49.915Z,14.63
2018-06-08T19:48:20.372Z,11.93
2018-06-08T19:50:49.954Z,12.17
2018-06-08T19:53:17.848Z,12.73
2018-06-08T19:55:47.517Z,13.67
2018-06-08T19:58:16.172Z,13.03
2018-06-08T20:00:43.242Z,11.73
2018-06-08T20:03:10.128Z,12.43
2018-06-08T20:05:37.860Z,11.40
2018-06-08T20:08:04.872Z,12.37
2018-06-08T20:10:31.781Z,12.30
2018-06-08T20:12:58.756Z,13.00
2018-06-08T20:15:25.655Z,12.50
2018-06-08T20:17:52.642Z,12.90
2018-06-08T20:20:19.575Z,12.47
2018-06-08T20:22:47.319Z,13.10
2018-06-08T20:25:14.252Z,12.73
2018-06-08T20:27:41.216Z,12.27
2018-06-08T20:30:08.112Z,12.63
2018-06-08T20:32:35.106Z,12.40
2018-06-08T20:35:06.382Z,12.60
2018-06-08T20:37:34.882Z,13.67
2018-06-08T20:40:02.492Z,12.47
2018-06-08T20:42:33.890Z,14.70
2018-06-08T20:45:03.070Z,14.00
2018-06-08T20:47:33.927Z,14.33
2018-06-08T20:50:01.372Z,12.80
2018-06-08T20:52:28.291Z,14.10
2018-06-08T20:54:56.988Z,13.13
2018-06-08T20:57:24.702Z,12.87
2018-06-08T20:59:51.649Z,14.73
2018-06-08T21:02:18.765Z,13.27
2018-06-08T21:04:46.912Z,15.63
2018-06-08T21:07:14.697Z,13.53
2018-06-08T21:09:43.108Z,14.97
2018-06-08T21:12:10.225Z,14.87
2018-06-08T21:14:38.154Z,14.87
2018-06-08T21:17:05.074Z,15.73
2018-06-08T21:19:32.045Z,14.83
2018-06-08T21:21:59.030Z,14.87
2018-06-08T21:24:26.720Z,16.30
2018-06-08T21:26:53.648Z,15.87
2018-06-08T21:29:20.799Z,17.47
2018-06-08T21:31:48.507Z,15.97
2018-06-08T21:34:15.482Z,17.30
2018-06-08T21:36:42.444Z,17.57
2018-06-08T21:39:10.633Z,17.43
2018-06-08T21:41:38.288Z,16.73
2018-06-08T21:44:06.092Z,23.07
2018-06-08T21:46:33.079Z,17.10
2018-06-08T21:49:00.049Z,18.87
2018-06-08T21:51:27.775Z,17.40
2018-06-08T21:53:54.697Z,18.83
2018-06-08T21:56:21.649Z,20.10
2018-06-08T21:58:48.618Z,18.77
2018-06-08T22:01:15.577Z,19.10
2018-06-08T22:03:42.627Z,19.83
2018-06-08T22:06:09.599Z,19.80
2018-06-08T22:08:36.509Z,20.27
2018-06-08T22:11:03.424Z,21.00
2018-06-08T22:13:34.281Z,21.63
2018-06-08T22:16:12.106Z,21.13
2018-06-08T22:18:53.107Z,21.63
2018-06-08T22:21:22.808Z,23.37
2018-06-08T22:23:50.320Z,23.90
2018-06-08T22:26:17.246Z,21.50
2018-06-08T22:28:55.793Z,22.53
2018-06-08T22:31:37.129Z,24.30
2018-06-08T22:34:16.379Z,24.37
2018-06-08T22:36:44.128Z,26.50
2018-06-08T22:39:11.266Z,27.07
2018-06-08T22:41:38.547Z,29.47
2018-06-08T22:44:05.668Z,28.67
2018-06-08T22:46:32.859Z,28.70
2018-06-08T22:49:00.032Z,27.43
2018-06-08T22:51:27.279Z,28.60
2018-06-08T22:53:54.403Z,27.43
2018-06-08T22:56:21.665Z,26.37
2018-06-08T22:58:48.833Z,28.20
2018-06-08T23:01:16.189Z,26.97
2018-06-08T23:03:43.454Z,26.97
2018-06-08T23:06:10.877Z,27.60
2018-06-08T23:08:38.170Z,25.93
2018-06-08T23:11:05.349Z,29.20
2018-06-08T23:13:33.149Z,25.97
2018-06-08T23:16:00.217Z,28.63
2018-06-08T23:18:27.628Z,27.00
2018-06-08T23:20:54.661Z,27.80
2018-06-08T23:23:22.844Z,30.00
2018-06-08T23:25:50.954Z,27.10
2018-06-08T23:28:18.096Z,28.80
2018-06-08T23:30:45.269Z,29.73
2018-06-08T23:33:12.549Z,29.07
2018-06-08T23:35:40.698Z,30.27
2018-06-08T23:38:07.907Z,31.33
2018-06-08T23:40:36.105Z,30.70
2018-06-08T23:43:04.188Z,29.67
2018-06-08T23:45:43.464Z,29.03
2018-06-08T23:48:10.845Z,31.37
2018-06-08T23:50:38.505Z,31.00
2018-06-08T23:53:06.146Z,29.60
2018-06-08T23:55:33.064Z,31.63
2018-06-08T23:58:00.031Z,31.97
